Time;durP1;ratioP1;P1;durP2;ratioP2;P2;SDS_P1;SDS_P2;PMS_P1;PMS_P2;Temp;Humidity;BMP_temperature;BMP_pressure;BME280_temperature;BME280_humidity;BME280_pressure;Samples;Min_cycle;Max_cycle;Signal;HPM_P1;HPM_P2
2022/04/26 03:36:38;;;;;;;3.08;1.50;;;20.50;56.90;;;;;;5030793;28;20265;-58
2022/04/26 03:39:08;;;;;;;3.70;1.60;;;20.50;56.80;;;;;;5030851;28;20232;-58
2022/04/26 03:41:39;;;;;;;3.40;1.42;;;20.50;56.80;;;;;;5030439;28;20258;-60
2022/04/26 03:44:10;;;;;;;1.75;1.10;;;20.50;57.40;;;;;;5030381;28;20192;-59
2022/04/26 03:46:40;;;;;;;2.47;1.27;;;20.60;56.80;;;;;;5028235;28;20671;-59
2022/04/26 03:49:11;;;;;;;4.75;1.58;;;20.60;56.80;;;;;;5030263;28;20192;-59
2022/04/26 03:51:43;;;;;;;2.72;1.50;;;20.60;56.70;;;;;;5029325;28;20223;-59
2022/04/26 03:54:13;;;;;;;3.60;1.60;;;20.60;56.60;;;;;;5029822;28;20305;-58
2022/04/26 03:56:44;;;;;;;2.25;1.20;;;20.60;56.70;;;;;;5030224;28;20208;-59
2022/04/26 03:59:15;;;;;;;4.57;1.50;;;20.70;56.70;;;;;;5029983;28;20192;-59
2022/04/26 04:01:45;;;;;;;3.03;1.60;;;20.70;56.70;;;;;;5029940;28;20195;-59
2022/04/26 04:04:16;;;;;;;3.15;1.30;;;20.70;56.70;;;;;;5028628;28;20664;-59
2022/04/26 04:06:48;;;;;;;3.15;1.52;;;20.70;56.70;;;;;;5029082;28;20215;-59
2022/04/26 04:09:19;;;;;;;3.95;1.63;;;20.70;56.70;;;;;;5029723;28;20212;-59
2022/04/26 04:11:49;;;;;;;3.25;1.50;;;20.70;56.70;;;;;;5029576;28;20672;-59
2022/04/26 04:14:19;;;;;;;3.75;1.67;;;20.70;56.70;;;;;;5029972;28;20251;-59
2022/04/26 04:16:50;;;;;;;4.60;1.63;;;20.70;56.60;;;;;;5029095;28;20246;-59
2022/04/26 04:19:21;;;;;;;3.63;1.92;;;20.70;56.70;;;;;;5029313;28;20220;-59
2022/04/26 04:21:54;;;;;;;2.70;1.67;;;20.70;56.70;;;;;;5029310;28;20287;-60
2022/04/26 04:24:24;;;;;;;4.30;1.80;;;20.70;56.60;;;;;;5029378;28;20767;-59
2022/04/26 04:26:55;;;;;;;3.40;1.75;;;20.70;56.60;;;;;;5026480;28;20224;-59
2022/04/26 04:29:25;;;;;;;2.80;1.40;;;20.70;56.50;;;;;;5028854;28;20227;-59
2022/04/26 04:31:56;;;;;;;6.75;2.13;;;20.70;56.40;;;;;;5028765;28;20729;-59
2022/04/26 04:34:26;;;;;;;6.05;2.22;;;20.70;56.40;;;;;;5028098;28;20305;-59
2022/04/26 04:36:59;;;;;;;5.63;2.03;;;20.70;56.50;;;;;;5029033;28;20216;-60
2022/04/26 04:39:29;;;;;;;6.03;2.55;;;20.70;56.40;;;;;;5028734;28;20192;-60
2022/04/26 04:42:00;;;;;;;6.43;2.35;;;20.80;56.40;;;;;;5028662;28;20278;-59
2022/04/26 04:44:31;;;;;;;6.13;2.45;;;20.70;56.30;;;;;;5029154;28;20648;-60
2022/04/26 04:47:01;;;;;;;6.28;2.20;;;20.80;56.30;;;;;;5027995;28;20247;-59
2022/04/26 04:49:32;;;;;;;7.68;2.45;;;20.70;56.30;;;;;;5028211;28;20192;-59
2022/04/26 04:52:05;;;;;;;5.22;2.00;;;20.70;56.30;;;;;;5028128;28;20570;-59
2022/04/26 04:54:36;;;;;;;4.03;2.17;;;20.70;56.40;;;;;;5028836;28;20224;-59
2022/04/26 04:57:07;;;;;;;5.13;2.10;;;20.70;56.30;;;;;;5027867;28;20216;-59
2022/04/26 04:59:38;;;;;;;6.63;2.20;;;20.70;56.40;;;;;;5028850;28;20256;-60
2022/04/26 05:02:08;;;;;;;7.50;2.30;;;20.70;56.40;;;;;;5029405;28;20246;-59
2022/04/26 05:04:39;;;;;;;4.22;1.80;;;20.70;56.40;;;;;;5027675;28;20254;-60
2022/04/26 05:07:12;;;;;;;4.85;2.03;;;20.70;56.40;;;;;;5028724;28;20218;-59
2022/04/26 05:09:43;;;;;;;5.65;2.30;;;20.70;56.40;;;;;;5027703;28;20228;-59
2022/04/26 05:12:13;;;;;;;5.60;2.05;;;20.70;56.30;;;;;;5028569;28;20204;-59
2022/04/26 05:14:44;;;;;;;5.18;1.95;;;20.70;56.30;;;;;;5028553;28;20255;-59
2022/04/26 05:17:14;;;;;;;5.68;2.65;;;20.70;56.30;;;;;;5027390;28;20270;-59
2022/04/26 05:19:45;;;;;;;6.28;2.50;;;20.70;56.20;;;;;;5028286;28;20250;-59
2022/04/26 05:22:18;;;;;;;4.57;2.30;;;20.70;56.20;;;;;;5025984;28;20263;-59
2022/04/26 05:24:57;;;;;;;4.25;2.30;;;20.60;56.20;;;;;;5026877;28;20201;-60
2022/04/26 05:27:28;;;;;;;5.65;2.25;;;20.60;56.20;;;;;;5028194;28;20227;-59
2022/04/26 05:29:59;;;;;;;7.38;2.88;;;20.60;56.20;;;;;;5028571;28;20261;-60
2022/04/26 05:32:31;;;;;;;5.72;2.65;;;20.60;56.20;;;;;;5028541;28;20196;-59
2022/04/26 05:35:02;;;;;;;4.43;2.72;;;20.60;56.20;;;;;;5027820;28;20282;-60
2022/04/26 05:37:35;;;;;;;4.45;2.42;;;20.60;56.20;;;;;;5028406;28;20269;-60
2022/04/26 05:40:05;;;;;;;6.90;2.63;;;20.60;56.20;;;;;;5026507;28;20250;-59
2022/04/26 05:42:40;;;;;;;4.70;2.47;;;20.60;56.20;;;;;;5028267;28;20243;-59
2022/04/26 05:45:10;;;;;;;6.15;2.70;;;20.60;56.20;;;;;;5027978;28;20205;-60
2022/04/26 05:47:45;;;;;;;5.65;2.60;;;20.50;56.20;;;;;;5028421;28;20254;-60
2022/04/26 05:50:17;;;;;;;3.75;2.35;;;20.50;56.20;;;;;;5028644;28;20191;-59
2022/04/26 05:52:49;;;;;;;4.05;2.50;;;20.50;56.20;;;;;;5027310;28;20215;-59
2022/04/26 05:55:20;;;;;;;3.63;2.28;;;20.50;56.20;;;;;;5025252;28;20609;-59
2022/04/26 05:57:51;;;;;;;3.95;2.35;;;20.50;56.20;;;;;;5027143;28;20242;-59
2022/04/26 06:00:22;;;;;;;6.22;2.75;;;20.50;56.20;;;;;;5027948;28;20196;-59
2022/04/26 06:02:52;;;;;;;4.80;2.80;;;20.50;56.20;;;;;;5027946;28;20200;-58
2022/04/26 06:05:23;;;;;;;3.78;2.30;;;20.50;56.20;;;;;;5026600;28;20301;-59
2022/04/26 06:07:55;;;;;;;5.45;2.95;;;20.40;56.10;;;;;;5028321;28;20231;-59
2022/04/26 06:10:26;;;;;;;4.28;2.42;;;20.40;56.10;;;;;;5027480;28;20196;-59
2022/04/26 06:12:57;;;;;;;4.50;2.72;;;20.40;56.10;;;;;;5027069;28;20613;-59
2022/04/26 06:15:27;;;;;;;5.45;2.63;;;20.40;56.10;;;;;;5027530;28;21598;-59
2022/04/26 06:17:58;;;;;;;6.55;2.72;;;20.40;56.70;;;;;;5027467;28;20196;-60
2022/04/26 06:20:29;;;;;;;5.25;3.10;;;20.40;56.10;;;;;;5027412;28;20421;-59
2022/04/26 06:23:02;;;;;;;5.82;2.75;;;20.30;56.20;;;;;;5027174;28;20196;-60
2022/04/26 06:25:36;;;;;;;5.88;2.97;;;20.30;56.40;;;;;;5027918;28;20211;-59
2022/04/26 06:28:09;;;;;;;6.80;3.10;;;20.30;56.20;;;;;;5028102;28;20554;-59
2022/04/26 06:30:40;;;;;;;18.88;7.78;;;20.30;56.20;;;;;;5031636;28;20566;-59
2022/04/26 06:33:11;;;;;;;23.27;8.60;;;20.30;56.00;;;;;;5028819;28;20201;-60
2022/04/26 06:35:41;;;;;;;17.30;7.82;;;20.30;55.90;;;;;;5030040;28;20252;-59
2022/04/26 06:38:14;;;;;;;21.58;8.80;;;20.20;55.90;;;;;;5030989;28;20189;-59
2022/04/26 06:40:45;;;;;;;20.92;8.38;;;20.30;56.10;;;;;;5030980;28;20274;-58
2022/04/26 06:43:15;;;;;;;22.17;8.57;;;20.20;56.10;;;;;;5031919;28;20585;-59
2022/04/26 06:45:46;;;;;;;22.70;8.75;;;20.20;56.10;;;;;;5031123;28;20228;-59
2022/04/26 06:48:17;;;;;;;18.48;8.60;;;20.20;56.10;;;;;;5032126;28;20196;-58
2022/04/26 06:50:49;;;;;;;17.08;8.45;;;20.10;56.10;;;;;;5031731;28;20192;-59
2022/04/26 06:53:21;;;;;;;19.20;7.70;;;20.10;56.10;;;;;;5031034;28;20283;-59
2022/04/26 06:55:52;;;;;;;17.98;7.97;;;20.20;56.20;;;;;;5029262;28;20298;-59
2022/04/26 06:58:23;;;;;;;16.38;8.18;;;20.10;56.70;;;;;;5030940;28;20269;-59
2022/04/26 07:00:53;;;;;;;19.00;8.20;;;20.10;56.10;;;;;;5031527;28;20246;-59
2022/04/26 07:03:24;;;;;;;19.77;8.00;;;20.10;56.10;;;;;;5029440;28;20224;-59
2022/04/26 07:05:55;;;;;;;16.25;7.53;;;20.10;56.10;;;;;;5030137;28;20274;-59
2022/04/26 07:08:27;;;;;;;15.18;7.88;;;20.10;56.10;;;;;;5030862;28;20626;-60
2022/04/26 07:10:58;;;;;;;18.15;8.07;;;20.10;56.10;;;;;;5030406;28;20208;-60
2022/04/26 07:13:28;;;;;;;14.73;7.25;;;20.10;56.20;;;;;;5030801;28;20188;-59
2022/04/26 07:15:59;;;;;;;18.20;7.18;;;20.00;56.20;;;;;;5029669;28;20696;-59
2022/04/26 07:18:29;;;;;;;19.23;7.00;;;20.10;56.30;;;;;;5013149;28;20193;-60
2022/04/26 07:21:00;;;;;;;17.63;7.47;;;20.00;56.20;;;;;;5013305;28;20227;-58
2022/04/26 07:23:33;;;;;;;17.75;7.85;;;20.00;56.20;;;;;;5013687;28;20255;-59
2022/04/26 07:26:03;;;;;;;16.10;7.53;;;20.00;56.30;;;;;;5013380;28;20267;-59
2022/04/26 07:28:34;;;;;;;16.33;7.63;;;20.00;56.30;;;;;;5013584;28;20247;-59
2022/04/26 07:31:05;;;;;;;15.73;6.43;;;20.00;56.30;;;;;;5013537;28;20714;-58
2022/04/26 07:36:22;;;;;;;12.80;6.90;;;19.90;56.30;;;;;;5013550;28;20347;-59
2022/04/26 07:38:55;;;;;;;16.67;7.45;;;19.90;56.30;;;;;;5012771;28;20197;-59
2022/04/26 07:41:26;;;;;;;13.73;6.50;;;19.90;56.30;;;;;;5012563;28;20500;-59
2022/04/26 07:43:57;;;;;;;13.80;6.50;;;19.90;56.30;;;;;;5013292;28;20613;-59
2022/04/26 07:46:27;;;;;;;14.07;6.82;;;19.90;56.30;;;;;;5013477;28;20216;-60
2022/04/26 07:48:58;;;;;;;20.23;10.15;;;19.90;56.30;;;;;;5012518;28;20255;-51
2022/04/26 07:51:30;;;;;;;38.25;14.15;;;19.90;56.40;;;;;;5013370;28;20286;-55
2022/04/26 07:54:03;;;;;;;28.92;9.00;;;19.90;55.90;;;;;;5013282;28;20720;-52
2022/04/26 07:56:34;;;;;;;22.70;6.38;;;19.80;55.40;;;;;;5013116;28;20314;-59
2022/04/26 07:59:05;;;;;;;22.73;6.85;;;19.70;55.40;;;;;;5013185;28;20208;-60
2022/04/26 08:01:36;;;;;;;20.80;6.65;;;19.70;55.50;;;;;;5012997;28;20204;-59
2022/04/26 08:04:07;;;;;;;20.83;6.50;;;19.70;55.70;;;;;;5012342;28;20207;-59
2022/04/26 08:06:38;;;;;;;16.67;5.93;;;19.60;55.70;;;;;;5012700;28;20299;-59
2022/04/26 08:09:11;;;;;;;19.65;6.45;;;19.60;55.80;;;;;;5012804;28;20193;-58
2022/04/26 08:11:41;;;;;;;22.30;6.88;;;19.60;55.80;;;;;;5012386;28;20730;-59
2022/04/26 08:14:12;;;;;;;12.57;5.93;;;19.60;55.90;;;;;;5012379;28;20232;-58
2022/04/26 08:16:43;;;;;;;16.63;5.88;;;19.60;55.90;;;;;;5012547;28;20217;-58
2022/04/26 08:19:14;;;;;;;20.50;7.05;;;19.60;55.90;;;;;;5011585;28;20679;-59
2022/04/26 08:21:45;;;;;;;15.70;5.70;;;19.50;56.00;;;;;;5011798;28;20221;-58
2022/04/26 08:29:52;;;;;;;14.18;5.18;;;19.50;56.10;;;;;;5012777;28;20204;-59
2022/04/26 08:32:23;;;;;;;17.95;6.32;;;19.50;56.10;;;;;;5011724;28;20286;-60
2022/04/26 08:34:54;;;;;;;11.70;5.63;;;19.50;56.10;;;;;;5011546;28;20622;-58
2022/04/26 08:37:25;;;;;;;14.52;5.57;;;19.50;56.10;;;;;;5011860;28;20251;-60
2022/04/26 08:39:58;;;;;;;12.45;5.15;;;19.50;56.10;;;;;;5012023;28;20208;-59
2022/04/26 08:42:39;;;;;;;14.38;5.68;;;19.50;56.20;;;;;;5012069;28;20248;-60
2022/04/26 08:45:11;;;;;;;15.07;5.72;;;19.40;56.10;;;;;;5012117;28;20722;-59
2022/04/26 08:53:19;;;;;;;12.10;5.00;;;19.50;56.20;;;;;;5011587;28;20292;-60
2022/04/26 08:55:54;;;;;;;13.38;5.78;;;19.40;56.10;;;;;;5012310;28;20696;-59
2022/04/26 08:58:25;;;;;;;12.60;4.95;;;19.40;56.20;;;;;;5012533;28;20863;-60
2022/04/26 09:01:13;;;;;;;12.65;5.60;;;19.40;56.20;;;;;;5012127;28;20657;-58
2022/04/26 09:03:54;;;;;;;12.27;4.97;;;19.40;56.30;;;;;;5011535;28;20568;-59
2022/04/26 09:06:26;;;;;;;10.60;5.03;;;19.40;56.20;;;;;;5011641;28;20231;-61
2022/04/26 09:09:09;;;;;;;10.05;4.63;;;19.40;56.30;;;;;;5011991;28;20239;-59
2022/04/26 09:11:42;;;;;;;10.50;5.13;;;19.40;56.30;;;;;;5011639;28;20735;-60
2022/04/26 09:14:30;;;;;;;11.18;4.65;;;19.40;56.30;;;;;;5011047;28;20778;-60
2022/04/26 09:17:08;;;;;;;10.88;4.97;;;19.40;56.30;;;;;;5011559;28;20606;-59
2022/04/26 09:19:49;;;;;;;9.82;4.72;;;19.40;56.30;;;;;;5011546;28;20282;-59
2022/04/26 09:22:21;;;;;;;9.98;5.00;;;19.30;56.30;;;;;;5011609;28;20228;-59
2022/04/26 09:24:59;;;;;;;11.73;5.05;;;19.40;56.30;;;;;;5011928;28;20232;-59
2022/04/26 09:27:32;;;;;;;10.05;5.15;;;19.30;56.30;;;;;;5010985;28;20778;-58
2022/04/26 09:30:08;;;;;;;12.23;5.30;;;19.30;56.40;;;;;;5011419;28;20255;-61
2022/04/26 09:32:49;;;;;;;9.23;4.88;;;19.30;56.40;;;;;;5010760;28;20196;-62
2022/04/26 09:35:23;;;;;;;11.45;5.32;;;19.40;56.40;;;;;;5011628;28;20688;-59
2022/04/26 09:37:54;;;;;;;9.45;4.78;;;19.30;56.40;;;;;;5011674;28;20238;-57
2022/04/26 09:40:28;;;;;;;9.88;5.45;;;19.30;56.40;;;;;;5011407;28;20193;-58
2022/04/26 09:43:01;;;;;;;10.23;5.28;;;19.30;56.40;;;;;;5011151;28;20208;-59
2022/04/26 09:45:31;;;;;;;8.40;4.82;;;19.30;56.40;;;;;;5010653;28;20281;-58
2022/04/26 09:48:02;;;;;;;9.55;4.57;;;19.20;56.30;;;;;;5011218;28;20232;-57
2022/04/26 09:50:33;;;;;;;9.00;4.70;;;19.20;56.40;;;;;;5013844;28;20235;-59
2022/04/26 09:53:04;;;;;;;9.23;4.75;;;19.20;56.40;;;;;;5026511;28;20196;-59
2022/04/26 09:55:34;;;;;;;8.82;5.22;;;19.30;56.40;;;;;;5026102;28;20251;-57
2022/04/26 09:58:07;;;;;;;7.40;4.28;;;19.20;56.40;;;;;;5027947;28;20188;-58
2022/04/26 10:00:39;;;;;;;9.70;5.00;;;19.20;56.40;;;;;;5028141;28;20192;-57
2022/04/26 10:03:12;;;;;;;9.02;4.43;;;19.20;56.40;;;;;;5026938;28;20193;-59
2022/04/26 10:05:45;;;;;;;10.15;4.93;;;19.20;56.40;;;;;;5031585;28;20224;-58
2022/04/26 10:08:17;;;;;;;10.27;5.00;;;19.20;56.40;;;;;;5031011;28;20196;-58
2022/04/26 10:10:48;;;;;;;10.40;5.13;;;19.20;56.50;;;;;;5031402;28;20867;-59
2022/04/26 10:13:43;;;;;;;9.73;4.88;;;19.20;56.40;;;;;;5032118;28;20655;-58
2022/04/26 10:16:15;;;;;;;10.20;5.05;;;19.20;56.40;;;;;;5031092;28;20699;-57
2022/04/26 10:18:47;;;;;;;9.63;5.15;;;19.10;56.70;;;;;;5031820;28;20196;-59
2022/04/26 10:21:59;;;;;;;9.35;4.90;;;19.10;57.40;;;;;;5031526;28;20188;-58
2022/04/26 10:24:29;;;;;;;8.85;4.88;;;19.10;56.80;;;;;;5028494;28;20196;-58
2022/04/26 10:27:23;;;;;;;10.60;5.13;;;19.10;56.70;;;;;;5029415;28;20294;-58
2022/04/26 10:29:55;;;;;;;8.57;4.65;;;19.10;56.80;;;;;;5032051;28;20196;-58
2022/04/26 10:32:38;;;;;;;9.90;4.68;;;19.10;56.70;;;;;;5031894;28;20246;-57
2022/04/26 10:35:32;;;;;;;11.68;4.88;;;19.10;56.80;;;;;;5029043;28;20227;-57
2022/04/26 10:38:16;;;;;;;7.70;3.95;;;19.00;56.70;;;;;;5031747;28;20220;-59
2022/04/26 10:41:11;;;;;;;10.80;4.82;;;19.00;56.60;;;;;;5029344;28;20258;-58
2022/04/26 10:43:42;;;;;;;7.38;4.30;;;19.00;56.70;;;;;;5029730;28;20310;-57
2022/04/26 10:46:15;;;;;;;8.52;4.47;;;19.00;56.70;;;;;;5030320;28;21748;-59
2022/04/26 10:48:46;;;;;;;7.70;4.35;;;19.00;56.70;;;;;;5031727;28;20196;-58
2022/04/26 10:51:34;;;;;;;9.38;4.72;;;19.00;56.70;;;;;;5030673;28;20255;-58
2022/04/26 10:54:05;;;;;;;7.40;4.20;;;18.90;56.60;;;;;;5031062;28;20200;-59
2022/04/26 10:56:36;;;;;;;6.70;4.30;;;18.90;56.60;;;;;;5030562;28;20753;-58
2022/04/26 10:59:14;;;;;;;8.60;4.07;;;18.90;56.60;;;;;;5031105;28;20192;-57
2022/04/26 11:01:47;;;;;;;8.30;4.53;;;18.90;56.60;;;;;;5030911;28;20192;-57
2022/04/26 11:04:20;;;;;;;9.05;4.15;;;18.90;56.60;;;;;;5030266;28;20599;-58
2022/04/26 11:06:50;;;;;;;8.55;4.22;;;18.90;56.60;;;;;;5031132;28;20223;-58
2022/04/26 11:09:21;;;;;;;7.38;4.10;;;18.80;56.60;;;;;;5030363;28;20204;-57
2022/04/26 11:11:52;;;;;;;7.63;4.88;;;18.80;56.60;;;;;;5026554;28;20290;-58
2022/04/26 11:14:24;;;;;;;6.07;4.00;;;18.80;56.60;;;;;;5026886;28;20274;-59
2022/04/26 11:17:01;;;;;;;7.80;4.25;;;18.80;56.60;;;;;;5027824;28;20295;-59
2022/04/26 11:19:32;;;;;;;7.55;3.97;;;18.80;56.60;;;;;;5030621;28;20204;-58
2022/04/26 11:22:08;;;;;;;6.72;4.22;;;18.80;56.60;;;;;;5030541;28;20282;-58
2022/04/26 11:30:31;;;;;;;7.90;4.43;;;18.70;56.60;;;;;;5028670;28;20250;-57
2022/04/26 11:33:04;;;;;;;7.13;4.18;;;18.70;56.60;;;;;;5029429;28;20208;-57
2022/04/26 11:35:35;;;;;;;6.25;4.13;;;18.70;56.60;;;;;;5030186;28;20305;-59
2022/04/26 11:38:11;;;;;;;8.18;3.83;;;18.60;56.60;;;;;;5028576;28;20204;-57
2022/04/26 11:40:43;;;;;;;6.85;3.90;;;18.60;56.60;;;;;;5029817;28;20270;-58
2022/04/26 11:43:14;;;;;;;6.10;4.05;;;18.60;56.60;;;;;;5029997;28;20215;-59
2022/04/26 11:45:46;;;;;;;6.15;3.78;;;18.60;56.60;;;;;;5028015;28;20302;-58
2022/04/26 11:48:20;;;;;;;6.00;3.80;;;18.60;56.60;;;;;;5030252;28;20224;-58
2022/04/26 11:50:51;;;;;;;7.10;3.92;;;18.60;56.60;;;;;;5013290;28;20581;-60
2022/04/26 11:53:23;;;;;;;7.32;3.55;;;18.50;56.60;;;;;;5013419;28;20255;-59
2022/04/26 11:55:56;;;;;;;6.38;3.53;;;18.50;56.60;;;;;;5011386;28;20236;-59
2022/04/26 11:58:34;;;;;;;8.38;4.00;;;18.50;56.60;;;;;;5011491;28;20727;-59
2022/04/26 12:01:07;;;;;;;4.80;3.13;;;18.50;56.60;;;;;;5011091;28;20201;-59
2022/04/26 12:03:44;;;;;;;5.45;3.72;;;18.50;56.60;;;;;;5011585;28;20200;-59
2022/04/26 12:06:17;;;;;;;5.65;3.65;;;18.50;56.60;;;;;;5011629;28;20290;-58
2022/04/26 12:08:49;;;;;;;6.43;3.88;;;18.40;56.60;;;;;;5011647;28;20200;-57
2022/04/26 12:11:21;;;;;;;6.72;3.97;;;18.40;56.60;;;;;;5008653;28;20204;-60
2022/04/26 12:14:06;;;;;;;7.45;3.58;;;18.40;56.60;;;;;;5007716;28;20197;-59
2022/04/26 12:16:40;;;;;;;5.97;3.53;;;18.40;56.60;;;;;;5008614;28;20222;-60
2022/04/26 12:19:12;;;;;;;5.78;3.25;;;18.40;56.60;;;;;;5007528;28;20220;-61
2022/04/26 12:21:52;;;;;;;6.60;3.53;;;18.40;56.60;;;;;;5010116;28;20201;-58
2022/04/26 12:24:23;;;;;;;5.25;3.50;;;18.30;56.60;;;;;;5009546;28;20197;-56
2022/04/26 12:26:55;;;;;;;5.45;3.20;;;18.30;56.60;;;;;;5007296;28;20700;-58
2022/04/26 12:29:26;;;;;;;6.50;3.88;;;18.30;56.60;;;;;;5009692;28;20247;-57
2022/04/26 12:31:57;;;;;;;5.82;3.53;;;18.30;56.60;;;;;;5010098;28;20193;-58
2022/04/26 12:34:31;;;;;;;5.75;4.00;;;18.30;56.60;;;;;;5009374;28;20583;-59
2022/04/26 12:37:03;;;;;;;5.50;3.22;;;18.20;56.50;;;;;;5008372;28;20303;-60
2022/04/26 12:39:45;;;;;;;6.03;3.53;;;18.20;56.50;;;;;;5007630;28;20263;-58
2022/04/26 12:42:17;;;;;;;6.85;3.53;;;18.20;56.60;;;;;;5010788;28;20204;-58
2022/04/26 12:44:54;;;;;;;5.25;3.00;;;18.20;56.50;;;;;;5010747;28;20290;-58
2022/04/26 12:50:34;;;;;;;6.20;3.08;;;18.20;56.50;;;;;;5010343;28;20203;-58
2022/04/26 12:53:06;;;;;;;5.53;3.28;;;18.20;56.50;;;;;;5010301;28;20203;-60
2022/04/26 12:55:37;;;;;;;6.70;3.88;;;18.10;56.50;;;;;;5010410;28;20308;-57
2022/04/26 12:58:09;;;;;;;5.55;3.55;;;18.10;56.50;;;;;;5010545;28;20607;-58
2022/04/26 13:00:41;;;;;;;4.75;3.47;;;18.10;56.60;;;;;;5010713;28;20901;-59
2022/04/26 13:03:12;;;;;;;4.85;3.30;;;18.10;56.60;;;;;;5010402;28;20197;-58
2022/04/26 13:05:46;;;;;;;6.28;3.30;;;18.10;56.60;;;;;;5010321;28;20267;-57
2022/04/26 13:08:17;;;;;;;5.63;3.05;;;18.10;56.60;;;;;;5010357;28;20199;-58
2022/04/26 13:10:49;;;;;;;5.13;3.20;;;18.10;56.60;;;;;;5009941;28;20205;-59
2022/04/26 13:13:19;;;;;;;5.10;3.33;;;18.10;56.60;;;;;;5009554;28;20608;-57
2022/04/26 13:15:50;;;;;;;4.70;3.17;;;18.00;56.60;;;;;;5010115;28;20232;-58
2022/04/26 13:18:21;;;;;;;6.18;3.25;;;18.00;56.50;;;;;;5010516;28;20638;-57
2022/04/26 13:20:54;;;;;;;5.03;3.47;;;18.00;56.60;;;;;;5010400;28;20279;-58
2022/04/26 13:23:25;;;;;;;6.50;3.28;;;18.00;56.60;;;;;;5009911;28;20207;-57
2022/04/26 13:25:57;;;;;;;6.18;3.60;;;18.00;56.60;;;;;;5009775;28;20586;-57
2022/04/26 13:28:28;;;;;;;5.03;3.15;;;18.00;56.60;;;;;;5010154;28;20228;-59
2022/04/26 13:30:58;;;;;;;5.45;3.60;;;18.00;56.60;;;;;;5010197;28;20375;-58
2022/04/26 13:33:30;;;;;;;5.47;3.08;;;17.90;56.60;;;;;;5010138;28;20246;-58
2022/04/26 13:36:02;;;;;;;4.80;2.70;;;17.90;56.60;;;;;;5009666;28;20711;-57
2022/04/26 13:38:33;;;;;;;5.43;3.20;;;17.90;56.60;;;;;;5009551;28;20223;-58
2022/04/26 13:41:03;;;;;;;5.15;3.60;;;17.90;56.50;;;;;;5009590;28;20193;-58
2022/04/26 13:43:34;;;;;;;6.40;3.13;;;17.90;56.50;;;;;;5009781;28;20200;-57
2022/04/26 13:46:04;;;;;;;6.00;3.15;;;17.90;56.50;;;;;;5009562;28;20216;-57
2022/04/26 13:48:35;;;;;;;4.55;2.67;;;17.90;56.60;;;;;;5010557;28;20285;-59
2022/04/26 13:51:07;;;;;;;5.28;3.17;;;17.90;56.60;;;;;;5009534;28;20622;-58
2022/04/26 13:53:37;;;;;;;3.72;2.67;;;17.80;56.50;;;;;;5010188;28;20254;-58
2022/04/26 13:56:09;;;;;;;4.93;2.97;;;17.80;56.50;;;;;;5009504;28;20271;-57
2022/04/26 13:58:40;;;;;;;4.32;2.88;;;17.80;56.50;;;;;;5009490;28;20192;-59
2022/04/26 14:01:11;;;;;;;4.18;3.10;;;17.80;56.50;;;;;;5009603;28;20259;-58
2022/04/26 14:03:41;;;;;;;4.32;2.97;;;17.80;56.50;;;;;;5009400;28;20197;-59
2022/04/26 14:06:14;;;;;;;3.70;2.70;;;17.80;56.50;;;;;;5009428;28;20251;-57
2022/04/26 14:08:48;;;;;;;5.13;2.83;;;17.80;56.50;;;;;;5009894;28;20248;-59
2022/04/26 14:11:19;;;;;;;3.80;2.60;;;17.80;56.50;;;;;;5009987;28;20200;-59
2022/04/26 14:22:10;;;;;;;4.30;2.78;;;17.70;56.40;;;;;;4989879;28;20200;-59
2022/04/26 14:24:42;;;;;;;4.78;2.88;;;17.60;56.40;;;;;;4989959;28;20201;-58
2022/04/26 14:27:12;;;;;;;6.15;3.38;;;17.60;56.40;;;;;;5005027;28;20232;-58
2022/04/26 14:29:43;;;;;;;4.32;2.42;;;17.60;56.40;;;;;;5009328;28;20192;-60
2022/04/26 14:32:14;;;;;;;3.78;2.60;;;17.60;56.40;;;;;;5009552;28;20251;-59
2022/04/26 14:34:46;;;;;;;4.45;2.75;;;17.60;56.40;;;;;;5009638;28;20205;-60
2022/04/26 14:37:19;;;;;;;4.85;3.10;;;17.60;56.40;;;;;;5001010;28;20681;-59
2022/04/26 14:39:49;;;;;;;3.95;2.63;;;17.60;56.40;;;;;;5008997;28;20723;-60
2022/04/26 14:42:20;;;;;;;3.78;2.17;;;17.50;56.40;;;;;;5008573;28;20247;-59
2022/04/26 14:44:51;;;;;;;4.07;2.80;;;17.60;56.40;;;;;;5009033;28;20212;-60
2022/04/26 14:47:21;;;;;;;5.32;2.60;;;17.50;56.40;;;;;;5009577;28;20217;-59
2022/04/26 14:49:52;;;;;;;3.65;2.45;;;17.50;56.40;;;;;;5010696;28;20274;-58
2022/04/26 14:52:24;;;;;;;4.30;2.38;;;17.50;56.40;;;;;;4993139;28;20198;-59
2022/04/26 14:54:55;;;;;;;3.75;2.63;;;17.50;56.40;;;;;;4993220;28;20221;-59
2022/04/26 14:57:26;;;;;;;3.05;2.55;;;17.50;56.40;;;;;;5010267;28;20663;-60
2022/04/26 14:59:56;;;;;;;4.13;2.65;;;17.50;56.40;;;;;;5012752;28;20196;-59
2022/04/26 15:02:36;;;;;;;3.55;2.50;;;17.40;56.30;;;;;;5012724;28;20648;-59
2022/04/26 15:05:09;;;;;;;3.25;2.53;;;17.40;56.30;;;;;;5012449;28;20399;-57
2022/04/26 15:10:40;;;;;;;4.45;2.92;;;17.40;56.30;;;;;;4952085;29;20314;-59
2022/04/26 15:18:44;;;;;;;3.53;2.42;;;17.40;56.40;;;;;;5012698;28;20195;-58
2022/04/26 15:21:15;;;;;;;3.65;2.55;;;17.30;56.30;;;;;;5012438;28;20282;-58
2022/04/26 15:23:47;;;;;;;3.92;2.15;;;17.30;56.30;;;;;;5012464;28;20616;-58
2022/04/26 15:26:17;;;;;;;4.38;3.08;;;17.30;56.30;;;;;;5012401;28;20224;-59
2022/04/26 15:28:48;;;;;;;3.78;2.40;;;17.30;56.40;;;;;;5012251;28;20197;-59
2022/04/26 15:31:19;;;;;;;3.22;2.10;;;17.30;56.30;;;;;;5011768;28;20201;-58
2022/04/26 15:33:50;;;;;;;3.88;2.20;;;17.20;56.30;;;;;;5011941;28;20247;-58
2022/04/26 15:36:22;;;;;;;4.07;2.15;;;17.20;56.30;;;;;;5011436;28;20321;-58
2022/04/26 15:38:58;;;;;;;3.20;2.10;;;17.20;56.30;;;;;;5011708;28;20229;-59
2022/04/26 15:41:32;;;;;;;2.83;2.00;;;17.20;56.30;;;;;;5011688;28;20193;-59
2022/04/26 15:44:05;;;;;;;3.35;2.28;;;17.20;56.30;;;;;;5011941;28;20298;-58
2022/04/26 15:46:35;;;;;;;3.78;2.30;;;17.20;56.30;;;;;;5012083;28;20244;-58
2022/04/26 15:49:06;;;;;;;3.42;2.30;;;17.20;56.30;;;;;;5012165;28;20193;-59
2022/04/26 15:51:36;;;;;;;4.65;2.30;;;17.20;56.40;;;;;;5011087;28;20792;-58
2022/04/26 15:54:09;;;;;;;4.85;2.55;;;17.20;56.40;;;;;;5011264;28;20196;-59
2022/04/26 15:56:41;;;;;;;3.15;2.15;;;17.10;56.30;;;;;;5011227;28;20243;-58
2022/04/26 15:59:12;;;;;;;3.40;2.20;;;17.10;56.30;;;;;;5011884;28;20212;-60
2022/04/26 16:01:43;;;;;;;2.53;1.98;;;17.10;56.40;;;;;;5011146;28;20208;-58
2022/04/26 16:04:13;;;;;;;2.92;2.25;;;17.10;56.40;;;;;;5011511;28;20201;-59
2022/04/26 16:06:44;;;;;;;2.92;2.10;;;17.10;56.40;;;;;;5010628;28;20217;-59
2022/04/26 16:20:30;;;;;;;2.60;2.03;;;17.00;56.30;;;;;;5010639;28;20623;-59
2022/04/26 16:23:02;;;;;;;4.43;2.17;;;17.00;56.40;;;;;;4991169;28;20189;-58
2022/04/26 16:25:35;;;;;;;3.03;1.90;;;17.00;56.40;;;;;;4992583;28;20578;-58
2022/04/26 16:28:06;;;;;;;3.17;1.77;;;17.00;56.40;;;;;;5010588;28;20255;-57
2022/04/26 16:30:38;;;;;;;3.03;2.25;;;17.00;56.40;;;;;;5010848;28;20185;-58
2022/04/26 16:33:12;;;;;;;1.90;1.48;;;17.00;56.40;;;;;;4991629;28;20197;-59
2022/04/26 16:35:42;;;;;;;3.00;1.80;;;17.00;56.40;;;;;;4992392;28;20229;-58
2022/04/26 16:38:13;;;;;;;2.67;2.03;;;17.00;56.50;;;;;;5010924;28;20220;-58
2022/04/26 16:40:46;;;;;;;3.45;2.15;;;16.90;56.40;;;;;;5011272;28;20228;-58
2022/04/26 16:43:18;;;;;;;2.28;1.83;;;16.90;56.40;;;;;;5010868;28;20204;-59
2022/04/26 16:45:49;;;;;;;2.50;1.70;;;16.90;56.40;;;;;;5010888;28;20212;-59
2022/04/26 16:48:20;;;;;;;2.50;1.98;;;16.90;56.40;;;;;;5011833;28;20201;-59
2022/04/26 16:50:50;;;;;;;3.05;1.95;;;16.90;56.40;;;;;;5010808;28;20205;-59
2022/04/26 16:53:22;;;;;;;3.33;1.80;;;16.90;56.40;;;;;;5010746;28;20194;-58
2022/04/26 16:55:55;;;;;;;1.88;1.60;;;16.90;56.50;;;;;;5010626;28;20283;-58
2022/04/26 16:58:26;;;;;;;2.97;1.90;;;16.80;56.40;;;;;;5010617;28;20227;-58
2022/04/26 17:00:56;;;;;;;2.65;1.60;;;16.80;56.50;;;;;;5010523;28;20255;-58
2022/04/26 17:03:27;;;;;;;2.13;1.58;;;16.80;56.50;;;;;;5010423;28;20251;-59
2022/04/26 17:05:58;;;;;;;2.67;1.60;;;16.80;56.50;;;;;;5010202;28;20204;-58
2022/04/26 17:08:28;;;;;;;3.20;1.80;;;16.80;56.50;;;;;;5010639;28;20211;-58
2022/04/26 17:13:45;;;;;;;2.53;1.73;;;16.80;56.50;;;;;;5009209;28;20722;-58
2022/04/26 17:16:16;;;;;;;2.90;1.50;;;16.80;56.50;;;;;;5010359;28;20263;-58
2022/04/26 17:18:46;;;;;;;3.20;1.80;;;16.80;56.50;;;;;;5010752;28;20212;-59
2022/04/26 17:21:17;;;;;;;2.20;1.75;;;16.80;56.50;;;;;;5010227;28;20189;-58
2022/04/26 17:23:47;;;;;;;2.40;1.60;;;16.80;56.50;;;;;;5010411;28;20204;-58
2022/04/26 17:26:20;;;;;;;2.50;1.65;;;16.80;57.10;;;;;;5010060;28;20217;-59
2022/04/26 17:28:55;;;;;;;2.80;1.80;;;16.80;56.60;;;;;;5009992;28;20205;-59
2022/04/26 17:31:26;;;;;;;3.40;1.95;;;16.70;56.50;;;;;;5010180;28;20196;-59
2022/04/26 17:33:56;;;;;;;2.78;1.50;;;16.70;56.50;;;;;;5010043;28;20224;-59
2022/04/26 17:36:27;;;;;;;1.67;1.58;;;16.70;56.50;;;;;;5009348;28;20208;-58
2022/04/26 17:38:58;;;;;;;2.83;1.65;;;16.70;56.50;;;;;;5010138;28;20193;-59
2022/04/26 17:41:31;;;;;;;2.42;1.55;;;16.70;56.50;;;;;;5009967;28;20554;-59